createdAt,value
2018-01-14T00:01:02.883Z,1.50
2018-01-14T00:03:30.350Z,1.50
2018-01-14T00:05:57.843Z,1.40
2018-01-14T00:08:25.304Z,1.70
2018-01-14T00:10:52.783Z,1.40
2018-01-14T00:13:20.260Z,1.30
2018-01-14T00:15:47.746Z,1.50
2018-01-14T00:18:15.213Z,1.60
2018-01-14T00:20:42.691Z,1.40
2018-01-14T00:23:10.159Z,1.50
2018-01-14T00:25:38.410Z,1.40
2018-01-14T00:28:05.874Z,1.50
2018-01-14T00:30:33.354Z,1.30
2018-01-14T00:33:01.590Z,1.40
2018-01-14T00:35:29.074Z,1.40
2018-01-14T00:37:56.542Z,1.30
2018-01-14T00:40:24.027Z,1.50
2018-01-14T00:42:51.546Z,1.20
2018-01-14T00:45:18.999Z,1.50
2018-01-14T00:47:46.467Z,1.40
2018-01-14T00:50:13.945Z,1.40
2018-01-14T00:52:42.181Z,1.60
2018-01-14T00:55:09.659Z,1.70
2018-01-14T00:57:37.140Z,1.60
2018-01-14T01:00:05.388Z,1.60
2018-01-14T01:02:32.855Z,1.40
2018-01-14T01:05:00.336Z,1.40
2018-01-14T01:07:28.567Z,1.70
2018-01-14T01:09:56.052Z,1.70
2018-01-14T01:12:24.290Z,1.60
2018-01-14T01:14:51.782Z,1.70
2018-01-14T01:17:19.251Z,1.40
2018-01-14T01:19:47.501Z,1.30
2018-01-14T01:22:14.971Z,1.40
2018-01-14T01:24:42.446Z,1.40
2018-01-14T01:27:10.679Z,1.80
2018-01-14T01:29:38.147Z,1.40
2018-01-14T01:32:05.630Z,1.60
2018-01-14T01:34:33.101Z,1.40
2018-01-14T01:37:01.353Z,1.20
2018-01-14T01:39:28.824Z,1.10
2018-01-14T01:41:57.068Z,0.90
2018-01-14T01:44:24.560Z,1.20
2018-01-14T01:46:52.794Z,1.10
2018-01-14T01:49:20.262Z,1.20
2018-01-14T01:51:47.746Z,1.30
2018-01-14T01:54:15.981Z,1.10
2018-01-14T01:56:43.455Z,1.10
2018-01-14T01:59:10.925Z,1.30
2018-01-14T02:01:38.416Z,1.50
2018-01-14T02:04:06.655Z,1.20
2018-01-14T02:06:34.135Z,1.20
2018-01-14T02:09:02.387Z,1.60
2018-01-14T02:11:30.632Z,1.50
2018-01-14T02:13:58.105Z,1.70
2018-01-14T02:16:26.350Z,1.40
2018-01-14T02:18:53.818Z,1.50
2018-01-14T02:21:21.295Z,1.40
2018-01-14T02:23:48.765Z,1.30
2018-01-14T02:26:16.242Z,1.40
2018-01-14T02:28:43.721Z,1.60
2018-01-14T02:31:11.962Z,1.30
2018-01-14T02:33:39.432Z,1.50
2018-01-14T02:36:06.918Z,1.40
2018-01-14T02:38:35.159Z,1.50
2018-01-14T02:41:02.639Z,1.50
2018-01-14T02:43:30.875Z,1.40
2018-01-14T02:45:58.354Z,1.50
2018-01-14T02:48:25.831Z,1.50
2018-01-14T02:50:54.083Z,1.30
2018-01-14T02:53:21.554Z,1.20
2018-01-14T02:55:49.036Z,1.70
2018-01-14T02:58:17.267Z,1.50
2018-01-14T03:00:44.753Z,1.50
2018-01-14T03:03:12.222Z,1.40
2018-01-14T03:05:40.474Z,1.50
2018-01-14T03:08:07.959Z,1.40
2018-01-14T03:10:36.195Z,1.40
2018-01-14T03:13:04.429Z,1.50
2018-01-14T03:15:39.821Z,1.70
2018-01-14T03:18:07.282Z,1.70
2018-01-14T03:20:34.757Z,1.30
2018-01-14T03:23:04.987Z,1.50
2018-01-14T03:25:32.450Z,1.30
2018-01-14T03:28:00.690Z,1.50
2018-01-14T03:30:28.157Z,1.40
2018-01-14T03:32:55.694Z,1.40
2018-01-14T03:35:23.167Z,1.30
2018-01-14T03:37:50.642Z,1.20
2018-01-14T03:40:18.111Z,1.50
2018-01-14T03:42:46.355Z,1.20
2018-01-14T03:45:13.818Z,1.30
2018-01-14T03:47:41.298Z,1.10
2018-01-14T03:50:09.528Z,1.10
2018-01-14T03:52:37.004Z,1.30
2018-01-14T03:55:04.477Z,1.10
2018-01-14T03:57:31.959Z,0.90
2018-01-14T04:00:00.198Z,1.10
2018-01-14T04:02:27.670Z,0.90
2018-01-14T04:04:55.146Z,1.10
2018-01-14T04:07:23.386Z,1.20
2018-01-14T04:09:50.846Z,1.10
2018-01-14T04:12:18.309Z,1.10
2018-01-14T04:14:45.778Z,1.20
2018-01-14T04:17:13.961Z,1.10
2018-01-14T04:19:41.439Z,1.10
2018-01-14T04:22:09.674Z,1.20
2018-01-14T04:24:37.132Z,1.10
2018-01-14T04:27:04.605Z,1.30
2018-01-14T04:29:32.070Z,1.30
2018-01-14T04:32:00.315Z,1.40
2018-01-14T04:34:27.775Z,1.20
2018-01-14T04:36:55.248Z,1.20
2018-01-14T04:39:22.712Z,1.10
2018-01-14T04:41:50.190Z,1.10
2018-01-14T04:44:18.422Z,1.00
2018-01-14T04:46:45.897Z,1.10
2018-01-14T04:49:13.382Z,1.00
2018-01-14T04:51:41.624Z,1.20
2018-01-14T04:54:09.093Z,1.10
2018-01-14T04:56:36.574Z,1.00
2018-01-14T04:59:04.802Z,1.20
2018-01-14T05:01:32.278Z,0.90
2018-01-14T05:03:59.758Z,0.90
2018-01-14T05:06:28.004Z,1.00
2018-01-14T05:08:55.460Z,1.10
2018-01-14T05:11:22.925Z,1.10
2018-01-14T05:13:50.403Z,1.10
2018-01-14T05:16:17.889Z,1.10
2018-01-14T05:18:45.359Z,1.10
2018-01-14T05:21:12.836Z,1.10
2018-01-14T05:23:40.297Z,1.10
2018-01-14T05:26:07.774Z,1.10
2018-01-14T05:28:35.240Z,1.20
2018-01-14T05:31:02.721Z,1.10
2018-01-14T05:33:30.941Z,1.50
2018-01-14T05:35:58.416Z,1.50
2018-01-14T05:38:25.888Z,1.40
2018-01-14T05:40:53.361Z,1.30
2018-01-14T05:43:21.614Z,1.40
2018-01-14T05:45:49.087Z,1.20
2018-01-14T05:48:16.550Z,1.20
2018-01-14T05:50:44.018Z,1.30
2018-01-14T05:53:12.270Z,1.10
2018-01-14T05:55:39.741Z,1.00
2018-01-14T05:58:07.223Z,1.20
2018-01-14T06:00:34.684Z,1.00
2018-01-14T06:03:02.162Z,1.10
2018-01-14T06:05:29.626Z,1.20
2018-01-14T06:07:57.106Z,1.10
2018-01-14T06:10:24.579Z,1.10
2018-01-14T06:12:52.063Z,1.20
2018-01-14T06:15:20.307Z,1.10
2018-01-14T06:17:47.774Z,0.90
2018-01-14T06:20:15.251Z,1.40
2018-01-14T06:22:43.494Z,1.00
2018-01-14T06:25:10.965Z,0.90
2018-01-14T06:27:38.446Z,1.10
2018-01-14T06:30:06.683Z,1.10
2018-01-14T06:32:34.150Z,1.10
2018-01-14T06:35:01.649Z,1.00
2018-01-14T06:37:29.135Z,1.10
2018-01-14T06:39:56.602Z,0.80
2018-01-14T06:42:24.080Z,0.80
2018-01-14T06:44:51.551Z,0.90
2018-01-14T06:47:19.022Z,1.00
2018-01-14T06:49:47.254Z,1.00
2018-01-14T06:52:14.727Z,1.00
2018-01-14T06:54:42.214Z,0.90
2018-01-14T06:57:09.678Z,0.90
2018-01-14T06:59:37.918Z,0.90
2018-01-14T07:02:05.397Z,0.80
2018-01-14T07:04:32.861Z,0.90
2018-01-14T07:07:01.112Z,0.90
2018-01-14T07:09:28.574Z,0.70
2018-01-14T07:11:56.054Z,0.90
2018-01-14T07:14:24.333Z,0.50
2018-01-14T07:16:52.581Z,0.60
2018-01-14T07:19:20.050Z,0.60
2018-01-14T07:21:47.514Z,0.50
2018-01-14T07:24:14.974Z,0.40
2018-01-14T07:26:42.498Z,0.60
2018-01-14T07:29:09.969Z,0.30
2018-01-14T07:31:37.450Z,0.30
2018-01-14T07:34:04.921Z,0.60
2018-01-14T07:36:33.154Z,0.50
2018-01-14T07:39:00.638Z,0.40
2018-01-14T07:41:28.110Z,0.40
2018-01-14T07:43:56.355Z,0.30
2018-01-14T07:46:23.837Z,0.20
2018-01-14T07:48:51.315Z,0.40
2018-01-14T07:51:19.542Z,0.40
2018-01-14T07:53:47.019Z,0.40
2018-01-14T07:56:14.490Z,0.30
2018-01-14T07:58:42.732Z,0.30
2018-01-14T08:01:10.206Z,0.20
2018-01-14T08:03:37.694Z,0.30
2018-01-14T08:06:05.169Z,0.20
2018-01-14T08:08:32.637Z,0.20
2018-01-14T08:11:00.114Z,0.10
2018-01-14T08:13:27.597Z,0.20
2018-01-14T08:15:55.076Z,0.10
2018-01-14T08:18:23.324Z,-0.20
2018-01-14T08:20:50.796Z,0.10
2018-01-14T08:23:18.274Z,0.00
2018-01-14T08:25:46.500Z,0.10
2018-01-14T08:28:13.980Z,0.10
2018-01-14T08:30:41.458Z,0.10
2018-01-14T08:33:09.698Z,0.10
2018-01-14T08:35:37.162Z,0.20
2018-01-14T08:38:04.650Z,0.30
2018-01-14T08:40:32.894Z,0.20
2018-01-14T08:43:00.370Z,0.20
2018-01-14T08:45:27.832Z,0.30
2018-01-14T08:47:55.367Z,0.20
2018-01-14T08:50:22.798Z,0.30
2018-01-14T08:52:50.285Z,0.30
2018-01-14T08:55:17.765Z,0.20
2018-01-14T08:57:46.269Z,0.30
2018-01-14T09:00:16.038Z,0.30
2018-01-14T09:02:44.286Z,0.40
2018-01-14T09:05:11.758Z,0.40
2018-01-14T09:07:39.222Z,0.40
2018-01-14T09:10:06.703Z,0.20
2018-01-14T09:12:34.184Z,0.50
2018-01-14T09:15:02.437Z,0.50
2018-01-14T09:17:29.922Z,0.40
2018-01-14T09:19:58.160Z,0.50
2018-01-14T09:22:25.655Z,0.40
2018-01-14T09:24:53.899Z,0.60
2018-01-14T09:27:21.554Z,0.60
2018-01-14T09:29:49.025Z,0.60
2018-01-14T09:32:16.519Z,0.60
2018-01-14T09:34:43.982Z,0.60
2018-01-14T09:37:11.562Z,0.90
2018-01-14T09:39:39.048Z,0.80
2018-01-14T09:42:06.522Z,1.00
2018-01-14T09:44:34.006Z,0.90
2018-01-14T09:47:02.266Z,0.90
2018-01-14T09:49:29.763Z,0.80
2018-01-14T09:51:57.230Z,0.90
2018-01-14T09:54:24.706Z,1.30
2018-01-14T09:56:52.169Z,1.10
2018-01-14T09:59:19.662Z,1.20
2018-01-14T10:01:47.912Z,1.40
2018-01-14T10:04:15.385Z,1.20
2018-01-14T10:06:43.639Z,1.30
2018-01-14T10:09:11.115Z,1.30
2018-01-14T10:11:38.590Z,1.30
2018-01-14T10:14:06.840Z,1.50
2018-01-14T10:16:34.311Z,1.30
2018-01-14T10:19:01.781Z,1.40
2018-01-14T10:21:30.032Z,1.90
2018-01-14T10:23:57.505Z,1.50
2018-01-14T10:26:24.966Z,1.60
2018-01-14T10:28:52.439Z,1.80
2018-01-14T10:31:20.673Z,1.80
2018-01-14T10:33:48.166Z,1.70
2018-01-14T10:36:17.222Z,2.10
2018-01-14T10:38:44.698Z,2.20
2018-01-14T10:41:12.163Z,2.20
2018-01-14T10:43:39.638Z,2.20
2018-01-14T10:46:07.867Z,2.50
2018-01-14T10:48:35.334Z,2.60
2018-01-14T10:51:02.817Z,2.50
2018-01-14T10:53:30.290Z,2.40
2018-01-14T10:55:58.519Z,2.50
2018-01-14T10:58:26.007Z,2.50
2018-01-14T11:00:58.321Z,2.70
2018-01-14T11:03:25.838Z,2.60
2018-01-14T11:05:53.302Z,2.80
2018-01-14T11:08:20.787Z,2.80
2018-01-14T11:10:48.257Z,2.90
2018-01-14T11:13:15.748Z,3.00
2018-01-14T11:15:43.221Z,2.90
2018-01-14T11:18:10.682Z,2.90
2018-01-14T11:20:38.156Z,3.00
2018-01-14T11:23:05.638Z,2.90
2018-01-14T11:25:33.118Z,2.80
2018-01-14T11:28:00.594Z,2.90
2018-01-14T11:30:28.058Z,2.80
2018-01-14T11:32:55.541Z,2.80
2018-01-14T11:35:23.779Z,2.90
2018-01-14T11:37:51.242Z,3.00
2018-01-14T11:40:18.718Z,2.90
2018-01-14T11:42:46.197Z,2.90
2018-01-14T11:45:14.444Z,3.40
2018-01-14T11:47:41.923Z,3.20
2018-01-14T11:50:09.395Z,3.60
2018-01-14T11:52:37.631Z,3.20
2018-01-14T11:55:05.111Z,3.50
2018-01-14T11:57:32.584Z,3.40
2018-01-14T12:00:00.823Z,3.30
2018-01-14T12:02:28.294Z,3.10
2018-01-14T12:04:55.778Z,3.10
2018-01-14T12:07:24.014Z,3.20
2018-01-14T12:09:51.498Z,3.20
2018-01-14T12:12:18.986Z,3.20
2018-01-14T12:14:47.314Z,3.00
2018-01-14T12:17:14.799Z,3.10
2018-01-14T12:19:42.263Z,3.40
2018-01-14T12:22:10.497Z,3.50
2018-01-14T12:24:37.981Z,3.50
2018-01-14T12:27:06.350Z,3.40
2018-01-14T12:29:33.829Z,3.20
2018-01-14T12:32:02.066Z,3.50
2018-01-14T12:34:39.439Z,3.30
2018-01-14T12:37:07.001Z,3.50
2018-01-14T12:39:34.542Z,3.50
2018-01-14T12:42:02.550Z,3.60
2018-01-14T12:44:30.192Z,3.40
2018-01-14T12:46:57.658Z,3.40
2018-01-14T12:49:25.143Z,3.50
2018-01-14T12:51:53.358Z,3.20
2018-01-14T12:54:20.847Z,3.50
2018-01-14T12:56:48.314Z,3.70
2018-01-14T12:59:15.802Z,3.90
2018-01-14T13:01:43.265Z,3.60
2018-01-14T13:04:11.517Z,3.70
2018-01-14T13:06:38.978Z,3.70
2018-01-14T13:09:06.445Z,4.00
2018-01-14T13:11:33.910Z,3.80
2018-01-14T13:14:01.387Z,3.80
2018-01-14T13:16:29.625Z,3.90
2018-01-14T13:18:57.100Z,3.70
2018-01-14T13:21:24.581Z,3.50
2018-01-14T13:23:52.830Z,3.30
2018-01-14T13:26:20.296Z,3.50
2018-01-14T13:28:47.769Z,3.20
2018-01-14T13:31:16.009Z,3.00
2018-01-14T13:33:44.244Z,3.00
2018-01-14T13:36:11.714Z,2.80
2018-01-14T13:38:39.198Z,3.00
2018-01-14T13:41:06.714Z,3.00
2018-01-14T13:43:34.178Z,3.20
2018-01-14T13:46:01.664Z,2.70
2018-01-14T13:48:29.143Z,2.80
2018-01-14T13:50:56.684Z,2.80
2018-01-14T13:53:24.174Z,2.70
2018-01-14T13:55:51.646Z,2.80
2018-01-14T13:58:19.885Z,2.90
2018-01-14T14:00:47.369Z,2.60
2018-01-14T14:03:14.831Z,2.80
2018-01-14T14:05:43.081Z,2.70
2018-01-14T14:08:10.631Z,2.60
2018-01-14T14:10:38.182Z,2.70
2018-01-14T14:13:05.658Z,2.60
2018-01-14T14:15:33.898Z,2.60
2018-01-14T14:18:01.369Z,2.60
2018-01-14T14:20:28.843Z,2.60
2018-01-14T14:22:56.324Z,2.80
2018-01-14T14:25:23.796Z,2.40
2018-01-14T14:27:52.042Z,2.60
2018-01-14T14:30:19.535Z,2.60
2018-01-14T14:32:47.761Z,2.50
2018-01-14T14:35:15.249Z,2.20
2018-01-14T14:37:42.717Z,2.70
2018-01-14T14:40:10.203Z,2.60
2018-01-14T14:42:37.671Z,2.50
2018-01-14T14:45:05.141Z,2.50
2018-01-14T14:47:32.606Z,2.20
2018-01-14T14:50:00.093Z,2.20
2018-01-14T14:52:27.550Z,2.20
2018-01-14T14:54:55.030Z,2.40
2018-01-14T14:57:23.270Z,2.30
2018-01-14T14:59:50.747Z,2.30
2018-01-14T15:02:18.215Z,2.20
2018-01-14T15:04:45.697Z,2.00
2018-01-14T15:07:13.930Z,1.90
2018-01-14T15:09:42.161Z,2.20
2018-01-14T15:12:09.654Z,2.10
2018-01-14T15:14:37.150Z,2.10
2018-01-14T15:17:04.595Z,1.90
2018-01-14T15:19:32.073Z,2.10
2018-01-14T15:22:00.313Z,2.00
2018-01-14T15:24:27.878Z,1.70
2018-01-14T15:26:55.367Z,1.70
2018-01-14T15:29:23.601Z,2.00
2018-01-14T15:31:51.080Z,2.00
2018-01-14T15:34:18.553Z,1.80
2018-01-14T15:36:46.808Z,1.90
2018-01-14T15:39:14.444Z,1.90
2018-01-14T15:41:41.933Z,1.80
2018-01-14T15:44:09.411Z,1.70
2018-01-14T15:46:37.646Z,1.90
2018-01-14T15:49:05.111Z,1.90
2018-01-14T15:51:32.592Z,1.60
2018-01-14T15:54:00.068Z,1.70
2018-01-14T15:56:28.318Z,1.70
2018-01-14T15:58:55.781Z,1.40
2018-01-14T16:01:23.295Z,1.70
2018-01-14T16:03:51.858Z,1.40
2018-01-14T16:06:19.338Z,1.90
2018-01-14T16:08:46.802Z,1.80
2018-01-14T16:11:14.292Z,1.70
2018-01-14T16:13:44.076Z,1.90
2018-01-14T16:16:11.562Z,1.90
2018-01-14T16:18:39.058Z,1.50
2018-01-14T16:21:07.352Z,1.70
2018-01-14T16:23:36.325Z,1.50
2018-01-14T16:26:03.811Z,1.40
2018-01-14T16:28:31.282Z,1.50
2018-01-14T16:30:58.759Z,1.50
2018-01-14T16:33:26.677Z,1.90
2018-01-14T16:35:54.157Z,1.40
2018-01-14T16:38:21.633Z,1.70
2018-01-14T16:40:49.126Z,1.60
2018-01-14T16:43:17.345Z,1.80
2018-01-14T16:45:44.826Z,1.50
2018-01-14T16:48:13.206Z,1.40
2018-01-14T16:50:40.683Z,1.40
2018-01-14T16:53:08.175Z,1.40
2018-01-14T16:55:38.367Z,1.40
2018-01-14T16:58:06.447Z,1.60
2018-01-14T17:00:33.917Z,1.50
2018-01-14T17:03:02.154Z,1.60
2018-01-14T17:05:29.637Z,1.50
2018-01-14T17:07:57.148Z,1.30
2018-01-14T17:10:24.746Z,1.40
2018-01-14T17:12:52.069Z,1.50
2018-01-14T17:15:19.554Z,1.40
2018-01-14T17:17:49.073Z,1.30
2018-01-14T17:20:16.545Z,1.50
2018-01-14T17:22:44.798Z,1.40
2018-01-14T17:25:12.485Z,1.60
2018-01-14T17:27:40.720Z,1.30
2018-01-14T17:30:08.212Z,1.50
2018-01-14T17:32:36.437Z,1.40
2018-01-14T17:35:03.940Z,1.70
2018-01-14T17:37:31.402Z,1.50
2018-01-14T17:39:59.659Z,1.50
2018-01-14T17:42:27.122Z,1.50
2018-01-14T17:44:54.600Z,1.80
2018-01-14T17:47:22.838Z,1.50
2018-01-14T17:49:50.323Z,1.80
2018-01-14T17:52:17.790Z,1.60
2018-01-14T17:54:46.026Z,1.50
2018-01-14T17:57:13.567Z,1.60
2018-01-14T17:59:41.758Z,1.80
2018-01-14T18:02:09.230Z,1.40
2018-01-14T18:04:36.701Z,1.60
2018-01-14T18:07:04.178Z,1.60
2018-01-14T18:09:32.414Z,1.50
2018-01-14T18:11:59.891Z,1.40
2018-01-14T18:14:27.352Z,1.60
2018-01-14T18:17:00.458Z,1.40
2018-01-14T18:19:28.711Z,1.70
2018-01-14T18:21:56.178Z,1.60
2018-01-14T18:24:23.667Z,1.40
2018-01-14T18:26:51.128Z,1.40
2018-01-14T18:29:18.606Z,1.50
2018-01-14T18:31:46.090Z,1.30
2018-01-14T18:34:13.554Z,1.20
2018-01-14T18:36:41.038Z,1.30
2018-01-14T18:39:09.274Z,1.40
2018-01-14T18:41:36.754Z,1.20
2018-01-14T18:44:04.230Z,1.20
2018-01-14T18:46:32.479Z,1.20
2018-01-14T18:48:59.938Z,1.20
2018-01-14T18:51:27.419Z,1.20
2018-01-14T18:53:55.693Z,1.20
2018-01-14T18:56:23.150Z,1.30
2018-01-14T18:58:51.390Z,1.20
2018-01-14T19:01:18.866Z,1.20
2018-01-14T19:03:46.338Z,1.20
2018-01-14T19:06:13.814Z,1.20
2018-01-14T19:08:42.053Z,1.30
2018-01-14T19:11:09.529Z,1.20
2018-01-14T19:13:36.993Z,1.20
2018-01-14T19:16:05.235Z,1.10
2018-01-14T19:18:32.712Z,1.20
2018-01-14T19:21:00.189Z,1.10
2018-01-14T19:23:28.461Z,1.30
2018-01-14T19:25:55.945Z,0.90
2018-01-14T19:28:24.170Z,1.00
2018-01-14T19:30:52.422Z,1.00
2018-01-14T19:33:19.894Z,0.90
2018-01-14T19:35:47.378Z,0.90
2018-01-14T19:38:14.857Z,0.90
2018-01-14T19:40:43.101Z,0.90
2018-01-14T19:43:10.571Z,0.80
2018-01-14T19:45:38.046Z,0.60
2018-01-14T19:48:06.284Z,0.80
2018-01-14T19:50:33.767Z,0.70
2018-01-14T19:53:01.242Z,0.70
2018-01-14T19:55:29.484Z,0.70
2018-01-14T19:57:56.954Z,0.70
2018-01-14T20:00:24.419Z,0.70
2018-01-14T20:02:51.898Z,0.60
2018-01-14T20:05:20.146Z,0.80
2018-01-14T20:07:47.629Z,0.70
2018-01-14T20:10:15.867Z,0.60
2018-01-14T20:12:43.346Z,0.60
2018-01-14T20:15:10.815Z,0.60
2018-01-14T20:17:39.060Z,0.80
2018-01-14T20:20:06.527Z,0.60
2018-01-14T20:22:34.022Z,0.70
2018-01-14T20:25:02.255Z,0.70
2018-01-14T20:27:29.730Z,0.60
2018-01-14T20:29:57.263Z,0.80
2018-01-14T20:32:24.746Z,0.80
2018-01-14T20:34:52.208Z,0.80
2018-01-14T20:37:20.462Z,0.70
2018-01-14T20:39:47.930Z,0.70
2018-01-14T20:42:15.405Z,0.40
2018-01-14T20:44:49.233Z,0.30
2018-01-14T20:47:16.718Z,0.40
2018-01-14T20:49:44.199Z,0.60
2018-01-14T20:52:12.461Z,0.60
2018-01-14T20:54:39.974Z,0.60
2018-01-14T20:57:08.248Z,0.30
2018-01-14T20:59:36.477Z,0.60
2018-01-14T21:02:03.967Z,0.30
2018-01-14T21:04:31.437Z,0.60
2018-01-14T21:06:59.693Z,0.30
2018-01-14T21:09:27.157Z,0.30
2018-01-14T21:11:54.634Z,0.20
2018-01-14T21:14:22.883Z,-0.10
2018-01-14T21:16:50.354Z,-0.20
2018-01-14T21:19:18.611Z,-0.10
2018-01-14T21:21:46.098Z,-0.30
2018-01-14T21:24:14.385Z,-0.20
2018-01-14T21:26:41.823Z,-0.40
2018-01-14T21:29:09.290Z,-0.30
2018-01-14T21:31:37.543Z,-0.20
2018-01-14T21:34:05.014Z,-0.20
2018-01-14T21:36:33.270Z,0.00
2018-01-14T21:39:00.733Z,0.00
2018-01-14T21:41:28.222Z,-0.10
2018-01-14T21:43:56.462Z,-0.40
2018-01-14T21:46:23.941Z,-0.30
2018-01-14T21:48:51.422Z,-0.30
2018-01-14T21:51:18.891Z,-0.40
2018-01-14T21:53:46.374Z,-0.60
2018-01-14T21:56:13.855Z,-0.20
2018-01-14T21:58:41.329Z,-0.50
2018-01-14T22:01:08.798Z,-0.80
2018-01-14T22:03:37.044Z,-0.20
2018-01-14T22:06:04.527Z,-0.40
2018-01-14T22:08:32.778Z,0.00
2018-01-14T22:11:00.241Z,-0.20
2018-01-14T22:13:27.723Z,0.20
2018-01-14T22:15:55.959Z,0.00
2018-01-14T22:18:23.435Z,-0.10
2018-01-14T22:20:50.900Z,0.20
2018-01-14T22:23:18.387Z,-0.10
2018-01-14T22:25:46.622Z,-0.30
2018-01-14T22:28:14.110Z,-0.20
2018-01-14T22:30:42.354Z,-0.20
2018-01-14T22:33:09.841Z,-0.40
2018-01-14T22:35:38.083Z,-0.30
2018-01-14T22:38:05.592Z,-0.20
2018-01-14T22:40:33.067Z,-0.20
2018-01-14T22:43:00.555Z,-0.40
2018-01-14T22:45:28.026Z,-0.20
2018-01-14T22:47:55.503Z,-0.10
2018-01-14T22:50:23.742Z,0.20
2018-01-14T22:52:51.221Z,0.20
2018-01-14T22:55:18.705Z,0.40
2018-01-14T22:57:46.951Z,0.60
2018-01-14T23:00:14.426Z,0.40
2018-01-14T23:02:41.898Z,0.80
2018-01-14T23:05:10.129Z,0.70
2018-01-14T23:07:37.615Z,0.70
2018-01-14T23:10:05.084Z,0.70
2018-01-14T23:12:33.317Z,0.60
2018-01-14T23:15:06.429Z,0.70
2018-01-14T23:17:33.909Z,0.70
2018-01-14T23:20:02.156Z,0.80
2018-01-14T23:22:29.889Z,0.80
2018-01-14T23:24:58.083Z,1.00
2018-01-14T23:27:25.554Z,0.70
2018-01-14T23:29:53.028Z,0.90
2018-01-14T23:32:20.509Z,1.00
2018-01-14T23:34:48.741Z,1.20
2018-01-14T23:37:16.226Z,1.00
2018-01-14T23:39:44.461Z,1.50
2018-01-14T23:42:11.945Z,1.30
2018-01-14T23:44:39.415Z,1.30
2018-01-14T23:47:06.895Z,1.70
2018-01-14T23:49:35.124Z,1.60
2018-01-14T23:52:02.580Z,1.50
2018-01-14T23:54:30.066Z,1.50
2018-01-14T23:56:58.305Z,1.70
2018-01-14T23:59:25.774Z,1.70
